Date,TemperatureHighF,TemperatureAvgF,TemperatureLowF,DewpointHighF,DewpointAvgF,DewpointLowF,HumidityHigh,HumidityAvg,HumidityLow,PressureMaxIn,PressureMinIn,WindSpeedMaxMPH,WindSpeedAvgMPH,GustSpeedMaxMPH,PrecipitationSumIn
2013-1-1,33,25,15,20,13,5,76,61,47,0.00,40.00,13,6,28,0.00
2013-1-2,30,24,15,19,13,6,79,63,45,0.00,40.00,13,7,29,0.00
2013-1-3,43,25,8,14,6,-2,83,48,18,0.00,40.00,11,3,21,0.00
2013-1-4,55,37,26,20,6,-4,50,29,11,0.00,40.00,10,4,18,0.00
2013-1-5,41,33,28,18,15,7,64,47,31,0.00,40.00,15,7,23,0.00
2013-1-6,49,39,23,17,8,2,53,29,15,0.00,40.00,11,7,23,0.00
2013-1-7,45,36,28,22,16,10,63,44,28,0.00,40.00,11,4,18,0.00
2013-1-8,44,36,29,21,16,13,59,45,37,0.00,40.00,12,7,27,0.00
2013-1-9,52,41,29,24,20,16,62,43,28,0.00,40.00,14,8,37,0.00
2013-1-10,52,45,37,19,15,11,43,30,20,0.00,40.00,12,8,27,0.00
2013-1-11,49,19,4,23,13,-4,96,80,28,0.00,40.00,13,7,23,0.00
2013-1-12,12,5,2,6,-1,-6,82,76,69,0.00,40.00,12,5,24,0.00
2013-1-13,18,9,1,8,1,-4,81,72,57,0.00,40.00,9,4,17,0.02
2013-1-14,20,12,7,0,-2,-7,68,52,37,0.00,40.00,11,8,25,0.01
2013-1-15,34,23,6,24,10,-10,75,58,29,0.00,40.00,17,11,33,0.01
2013-1-16,44,35,29,24,20,17,72,55,34,0.00,40.00,19,9,32,0.07
2013-1-17,46,38,33,19,17,16,53,43,32,0.00,40.00,13,8,26,0.02
2013-1-18,52,42,36,19,15,11,46,34,25,0.00,40.00,13,7,26,0.01
2013-1-19,46,35,25,25,19,14,82,54,28,0.00,40.00,13,6,24,0.00
2013-1-20,35,20,10,21,14,7,87,78,41,0.00,40.00,10,5,18,0.00
2013-1-21,22,12,9,12,8,5,88,84,66,0.00,40.00,8,3,12,0.00
2013-1-22,49,35,10,14,10,5,86,40,20,0.00,40.00,10,5,18,0.00
2013-1-23,36,21,11,15,10,5,88,69,27,0.00,40.00,5,3,12,0.00
2013-1-24,57,38,11,24,16,8,88,48,19,0.00,40.00,16,5,26,0.00
2013-1-25,52,39,31,25,21,15,67,49,25,0.00,40.00,11,6,20,0.00
2013-1-26,53,43,38,27,24,20,55,47,33,0.00,40.00,8,4,19,0.00
2013-1-27,53,41,29,30,26,21,90,57,41,0.00,40.00,10,4,19,0.00
2013-1-28,30,28,26,28,26,25,97,94,83,0.00,40.00,7,3,12,0.00
2013-1-29,34,25,12,25,16,3,95,69,37,0.00,40.00,12,6,20,0.04
2013-1-30,30,17,5,19,8,-2,89,68,50,0.00,40.00,11,5,23,0.01
2013-1-31,25,13,7,16,7,2,84,76,67,0.00,40.00,11,6,18,0.00
2013-2-1,42,32,19,28,24,13,85,73,52,0.00,40.00,12,7,22,0.05
2013-2-2,43,35,29,27,21,18,85,58,37,0.00,40.00,14,8,28,0.03
2013-2-3,50,38,29,22,17,10,70,46,21,0.00,40.00,11,6,21,0.00
2013-2-4,47,36,29,22,19,17,65,49,31,0.00,40.00,14,6,28,0.00
2013-2-5,45,39,31,24,23,20,66,53,44,0.00,40.00,9,6,17,0.00
2013-2-6,53,40,32,31,25,19,78,56,32,0.00,40.00,11,5,19,0.00
2013-2-7,45,37,31,25,17,14,71,44,29,0.00,40.00,10,5,18,0.00
2013-2-8,50,37,31,20,16,9,57,44,23,0.00,40.00,9,5,20,0.00
2013-2-9,39,29,24,26,18,11,86,64,43,0.00,40.00,20,8,35,0.00
2013-2-10,33,27,17,18,11,4,68,50,37,0.00,40.00,21,12,40,0.00
2013-2-11,30,21,12,10,6,3,67,51,34,0.00,40.00,14,7,28,0.00
2013-2-12,45,32,21,16,10,2,54,40,27,0.00,40.00,13,10,26,0.00
2013-2-13,45,34,26,27,18,12,72,53,36,0.00,40.00,18,9,34,0.00
2013-2-14,33,26,17,13,6,1,57,43,29,0.00,40.00,20,9,37,0.00
2013-2-15,29,23,15,14,9,1,66,55,35,0.00,40.00,9,5,18,0.00
2013-2-16,51,38,23,24,20,14,67,50,32,0.00,40.00,13,7,24,0.00
2013-2-17,51,40,28,25,19,16,60,44,27,0.00,40.00,12,8,31,0.00
2013-2-18,34,26,13,16,10,5,76,51,32,0.00,40.00,12,6,24,0.00
2013-2-19,26,17,11,13,10,7,88,76,58,0.00,40.00,10,5,15,0.00
2013-2-20,30,20,13,16,12,7,88,71,45,0.00,40.00,12,7,20,0.00
2013-2-21,25,20,17,20,17,14,93,88,80,0.00,40.00,8,4,12,0.07
2013-2-22,37,25,16,25,15,10,90,69,33,0.00,40.00,11,4,20,0.02
2013-2-23,46,34,21,17,12,7,60,42,24,0.00,40.00,9,5,19,0.01
2013-2-24,33,30,22,30,22,13,90,73,50,0.00,40.00,10,4,18,0.03
2013-2-25,42,31,19,14,12,8,69,45,29,0.00,40.00,12,6,20,0.01
2013-2-26,44,34,25,22,15,9,57,48,35,0.00,40.00,18,7,33,0.00
2013-2-27,39,29,20,20,16,10,87,59,41,0.00,40.00,8,4,16,0.00
2013-2-28,41,30,22,22,17,11,81,58,38,0.00,40.00,8,4,14,0.00
2013-3-1,44,34,21,28,18,10,81,54,28,0.00,40.00,10,5,16,0.00
2013-3-2,57,46,36,29,26,23,72,49,28,0.00,40.00,15,7,31,0.00
2013-3-3,60,50,36,31,26,23,61,41,24,0.00,40.00,11,6,22,0.00
2013-3-4,36,25,16,23,7,-1,66,45,32,0.00,40.00,21,11,40,0.00
2013-3-5,34,22,11,7,4,-1,61,47,28,0.00,40.00,12,6,21,0.00
2013-3-6,47,33,18,21,15,7,70,51,30,0.00,40.00,8,3,12,0.00
2013-3-7,56,44,31,26,23,19,67,44,31,0.00,40.00,13,7,24,0.00
2013-3-8,41,34,27,26,25,23,87,71,55,0.00,40.00,10,6,20,0.00
2013-3-9,47,33,23,29,18,7,96,61,21,0.00,40.00,23,9,39,0.00
2013-3-10,42,30,17,19,9,3,89,44,22,0.00,40.00,8,5,24,0.00
2013-3-11,46,38,28,22,12,5,52,36,22,0.00,40.00,18,8,34,0.00
2013-3-12,41,30,19,11,2,-4,50,32,15,0.00,40.00,11,5,25,0.00
2013-3-13,64,48,29,25,19,1,45,32,22,0.00,40.00,12,6,24,0.00
2013-3-14,68,56,41,29,25,23,54,31,18,0.00,40.00,11,5,33,0.00
2013-3-15,69,55,41,28,24,19,57,31,15,0.00,40.00,17,6,29,0.00
2013-3-16,41,29,25,28,26,22,97,87,57,0.00,40.00,7,3,15,0.06
2013-3-17,46,33,25,34,25,11,97,76,42,0.00,40.00,17,7,42,0.30
2013-3-18,37,29,23,17,9,-3,67,44,19,0.00,40.00,16,10,32,0.03
2013-3-19,38,30,18,17,12,5,64,49,26,0.00,40.00,10,6,29,0.00
2013-3-20,46,32,14,19,11,2,62,43,29,0.00,40.00,11,7,19,0.00
2013-3-21,37,31,25,30,20,15,96,66,48,0.00,40.00,10,6,18,0.00
2013-3-22,37,29,23,28,23,18,96,81,57,0.00,40.00,11,6,19,0.04
2013-3-23,27,20,14,21,16,9,93,81,64,0.00,40.00,7,4,11,0.26
2013-3-24,22,15,8,15,8,0,88,75,51,0.00,40.00,7,4,17,0.01
2013-3-25,31,18,4,17,7,-4,79,63,47,0.00,40.00,8,4,14,0.01
2013-3-26,48,32,17,25,11,5,76,44,19,0.00,40.00,7,5,18,0.00
2013-3-27,55,39,26,18,12,9,58,37,16,0.00,40.00,8,3,18,0.00
2013-3-28,62,53,46,30,27,24,41,36,28,0.00,40.00,8,5,21,0.00
2013-3-29,65,53,43,33,26,20,53,37,19,0.00,40.00,11,5,21,0.00
2013-3-30,54,46,35,40,30,-100,79,58,35,0.00,40.00,15,6,25,0.04
2013-3-31,57,41,26,29,25,18,93,56,26,0.00,40.00,15,8,27,0.03
2013-4-1,52,37,26,26,22,19,95,60,27,0.00,40.00,11,6,22,0.00
2013-4-2,55,42,27,27,21,18,76,47,28,0.00,40.00,8,4,15,0.00
2013-4-3,71,52,38,35,25,17,63,37,15,0.00,40.00,16,8,30,0.00
2013-4-4,55,43,30,32,24,17,76,48,32,0.00,40.00,13,7,21,0.00
2013-4-5,71,55,37,39,28,17,71,39,18,0.00,40.00,20,6,31,0.01
2013-4-6,62,53,43,37,29,23,71,44,25,0.00,40.00,20,7,31,0.01
2013-4-7,60,51,44,40,32,28,83,50,33,0.00,40.00,12,5,26,0.03
2013-4-8,45,35,18,39,30,14,96,82,65,0.00,40.00,22,12,42,0.03
2013-4-9,19,15,13,14,9,3,86,76,62,0.00,40.00,20,11,39,0.00
2013-4-10,29,20,13,25,17,10,90,87,83,0.00,40.00,8,4,16,0.36
2013-4-11,34,23,14,25,18,11,91,82,68,0.00,40.00,8,4,12,0.01
2013-4-12,45,32,22,31,24,19,94,76,46,0.00,40.00,8,4,18,0.01
2013-4-13,49,39,27,38,29,19,80,68,57,0.00,40.00,8,5,17,0.02
2013-4-14,43,35,21,37,22,8,78,59,43,0.00,40.00,16,10,36,0.02
2013-4-15,35,25,18,20,12,6,84,59,39,0.00,40.00,11,7,17,0.00
2013-4-16,26,23,21,22,20,17,93,87,82,0.00,40.00,12,6,18,0.13
2013-4-17,27,24,20,25,21,17,93,92,89,0.00,40.00,13,8,21,0.23
2013-4-18,33,25,17,25,19,14,89,78,58,0.00,40.00,8,4,14,0.02
2013-4-19,36,32,28,30,26,16,94,79,58,0.00,40.00,8,4,15,0.01
2013-4-20,53,40,30,39,33,27,91,77,54,0.00,40.00,10,4,18,0.00
2013-4-21,49,39,32,39,35,31,98,85,63,0.00,40.00,14,8,23,0.29
2013-4-22,33,27,20,32,22,11,98,82,65,0.00,40.00,18,9,26,0.34
2013-4-23,38,27,17,20,14,7,71,58,38,0.00,40.00,11,6,21,0.03
2013-4-24,41,35,28,26,19,11,72,51,40,0.00,40.00,15,9,31,0.02
2013-4-25,65,50,30,24,19,11,76,34,12,0.00,40.00,11,7,22,0.00
2013-4-26,68,55,40,26,24,20,48,31,20,0.00,40.00,8,4,18,0.00
2013-4-27,74,63,49,28,24,21,36,24,15,0.00,40.00,12,6,24,0.00
2013-4-28,68,59,45,43,32,23,89,40,23,0.00,40.00,15,8,24,0.04
2013-4-29,72,54,44,42,36,23,89,59,16,0.00,40.00,11,7,23,0.04
2013-4-30,50,40,32,33,28,16,98,66,27,0.00,40.00,14,8,22,0.02
2013-5-1,44,34,28,28,19,12,82,57,31,0.00,40.00,11,7,22,0.16
2013-5-2,49,40,30,29,20,12,66,45,32,0.00,40.00,12,5,21,0.06
2013-5-3,59,47,37,23,21,17,55,38,24,0.00,40.00,10,6,19,0.00
2013-5-4,54,44,33,18,15,10,48,33,20,0.00,40.00,12,7,25,0.00
2013-5-5,60,47,35,21,17,11,45,31,22,0.00,40.00,7,4,18,0.00
2013-5-6,68,56,42,29,24,19,39,31,22,0.00,40.00,11,5,21,0.00
2013-5-7,71,56,44,43,34,25,76,46,27,0.00,40.00,11,4,19,0.00
2013-5-8,69,59,46,43,38,34,79,49,29,0.00,40.00,15,9,31,0.00
2013-5-9,64,54,45,44,41,36,80,62,43,0.00,40.00,10,5,22,0.03
2013-5-10,71,55,43,44,35,-100,86,55,21,0.00,40.00,26,8,46,0.01
2013-5-11,61,50,41,35,26,-100,58,41,29,0.00,40.00,10,5,19,0.01
2013-5-12,74,60,41,38,32,25,55,36,27,0.00,40.00,9,5,18,0.00
2013-5-13,88,76,62,43,38,34,37,27,17,0.00,40.00,9,6,18,0.00
2013-5-14,78,72,60,48,40,34,39,31,24,0.00,40.00,12,8,21,0.00
2013-5-15,74,63,52,44,37,30,56,39,28,0.00,40.00,12,8,24,0.00
2013-5-16,76,56,53,55,30,-100,93,65,37,0.00,40.00,17,8,26,0.49
2013-5-17,74,62,51,56,45,-100,89,70,50,0.00,40.00,12,6,19,0.41
2013-5-18,73,62,53,56,50,44,83,65,55,0.00,40.00,17,8,30,0.11
2013-5-19,61,54,50,53,50,44,96,84,61,0.00,40.00,7,4,19,0.56
2013-5-20,58,52,47,45,39,36,83,62,48,0.00,40.00,16,9,31,0.01
2013-5-21,55,48,43,46,40,34,91,75,61,0.00,40.00,10,6,22,0.01
2013-5-22,55,48,42,45,42,40,98,83,67,0.00,40.00,19,8,31,0.01
2013-5-23,63,54,45,45,43,38,98,68,45,0.00,40.00,18,12,28,0.02
2013-5-24,81,64,54,54,45,19,90,59,10,0.00,40.00,15,8,22,0.00
2013-5-25,79,67,57,58,54,50,80,64,44,0.00,40.00,14,6,22,0.00
2013-5-26,70,60,53,58,55,51,99,83,61,0.00,40.00,19,8,28,0.00
2013-5-27,73,58,48,60,56,46,100,93,63,0.00,40.00,12,7,35,0.44
2013-5-28,73,59,47,52,44,34,94,60,34,0.00,40.00,11,6,20,0.37
2013-5-29,68,58,51,54,50,47,96,75,51,0.00,40.00,10,6,20,0.05
2013-5-30,55,51,47,52,44,40,96,77,65,0.00,40.00,21,13,50,0.06
2013-5-31,51,48,46,41,39,38,77,72,64,0.00,40.00,17,13,45,0.07
2013-6-1,63,54,44,42,36,-100,90,55,29,0.00,40.00,14,7,27,0.07
2013-6-2,74,58,45,49,43,35,73,57,38,0.00,40.00,10,6,18,0.01
2013-6-3,75,62,51,52,46,36,81,58,24,0.00,40.00,11,6,20,0.00
2013-6-4,64,56,46,44,37,29,66,49,32,0.00,40.00,12,7,28,0.00
2013-6-5,63,51,40,42,37,33,77,60,43,0.00,40.00,9,5,15,0.00
2013-6-6,69,56,43,48,43,38,85,63,44,0.00,40.00,11,5,18,0.00
2013-6-7,81,66,52,53,44,39,90,49,22,0.00,40.00,17,7,41,0.16
2013-6-8,72,63,53,54,44,37,96,56,30,0.00,40.00,17,9,41,0.33
2013-6-9,76,65,52,53,47,41,69,52,37,0.00,40.00,9,6,16,0.16
2013-6-10,83,72,59,58,54,47,70,54,40,0.00,40.00,12,7,18,0.00
2013-6-11,73,67,55,62,57,53,95,73,63,0.00,40.00,19,13,31,0.41
2013-6-12,64,59,54,57,52,48,95,78,66,0.00,40.00,12,7,21,0.41
2013-6-13,68,59,50,56,51,46,89,75,62,0.00,40.00,15,7,25,0.00
2013-6-14,82,69,61,59,52,36,77,56,20,0.00,40.00,13,6,27,0.00
2013-6-15,74,65,56,48,45,40,65,49,36,0.00,40.00,13,7,25,0.00
2013-6-16,80,66,58,59,52,46,77,62,48,0.00,40.00,17,7,31,0.00
2013-6-17,73,62,54,54,51,47,89,70,50,0.00,40.00,25,7,39,0.39
2013-6-18,80,68,53,55,52,47,84,59,42,0.00,40.00,13,6,21,0.03
2013-6-19,80,70,59,62,55,46,69,58,49,0.00,40.00,16,8,26,0.00
2013-6-20,82,72,64,61,57,42,82,61,24,0.00,40.00,9,5,22,0.00
2013-6-22,73,66,56,59,55,49,91,71,61,0.00,40.00,12,7,25,0.31
2013-6-23,76,64,52,52,47,33,98,58,23,0.00,40.00,10,6,20,0.30
2013-6-24,85,70,60,60,52,36,94,58,22,0.00,40.00,18,5,35,0.00
2013-6-25,82,72,64,56,49,41,62,44,30,0.00,40.00,12,7,24,0.00
2013-6-26,89,74,63,58,51,44,64,46,21,0.00,40.00,10,6,21,0.12
2013-6-27,88,75,63,56,52,49,63,47,26,0.00,40.00,11,7,20,0.12
2013-6-28,83,73,58,53,51,47,73,47,33,0.00,40.00,10,6,19,0.00
2013-6-29,77,69,59,56,50,42,75,52,33,0.00,40.00,14,7,23,0.00
2013-6-30,79,69,60,51,49,43,66,50,36,0.00,40.00,8,5,18,0.00
2013-7-1,78,67,58,59,53,47,81,62,39,0.00,40.00,9,4,17,0.14
2013-7-2,81,69,57,55,50,47,77,53,34,0.00,40.00,8,4,23,0.03
2013-7-3,89,76,61,49,45,41,57,36,19,0.00,40.00,11,6,19,0.00
2013-7-4,86,73,66,60,54,43,78,53,32,0.00,40.00,9,5,45,0.19
2013-7-5,83,73,66,61,56,53,80,56,37,0.00,40.00,10,5,25,0.15
2013-7-6,87,71,61,61,56,51,80,62,39,0.00,40.00,16,6,23,0.07
2013-7-7,84,70,60,63,57,50,93,65,39,0.00,40.00,11,6,19,0.12
2013-7-8,83,70,60,65,59,55,96,72,49,0.00,40.00,13,7,27,1.48
2013-7-9,80,72,57,59,55,53,89,58,42,0.00,40.00,11,6,22,0.01
2013-7-10,89,73,61,61,53,-100,73,53,32,0.00,40.00,13,7,26,0.00
2013-7-11,96,81,68,65,58,48,75,49,20,0.00,40.00,17,6,25,0.00
2013-7-12,85,78,70,60,57,53,70,49,37,0.00,40.00,13,6,26,0.00
2013-7-13,90,78,67,63,59,53,66,54,38,0.00,40.00,10,4,15,0.00
2013-7-14,76,68,60,62,59,55,96,72,62,0.00,40.00,16,10,32,0.00
2013-7-15,83,69,60,65,61,50,97,78,42,0.00,40.00,16,7,23,0.00
2013-7-16,87,81,71,54,52,49,52,37,29,0.00,40.00,10,7,21,0.00
2013-7-17,88,76,65,60,55,51,72,50,29,0.00,40.00,13,6,22,0.00
2013-7-18,89,80,69,61,57,53,63,46,33,0.00,40.00,20,7,30,0.00
2013-7-19,86,73,62,61,56,52,88,57,36,0.00,40.00,12,7,25,0.26
2013-7-20,86,73,63,61,55,-100,91,57,35,0.00,40.00,15,6,30,0.05
2013-7-21,88,73,60,61,57,55,95,60,34,0.00,40.00,15,8,25,0.15
2013-7-22,85,73,63,59,54,49,82,54,30,0.00,40.00,13,7,40,0.05
2013-7-23,83,70,59,60,57,54,85,66,42,0.00,40.00,12,6,22,0.05
2013-7-24,83,74,64,60,56,52,80,55,38,0.00,40.00,9,5,17,0.00
2013-7-25,80,70,59,59,54,49,93,60,41,0.00,40.00,13,7,24,0.02
2013-7-26,69,60,50,52,49,45,96,67,51,0.00,40.00,11,8,21,0.31
2013-7-27,69,60,49,53,48,43,83,66,51,0.00,40.00,8,6,16,0.01
2013-7-28,71,63,54,59,56,52,96,77,62,0.00,40.00,9,4,16,0.00
2013-7-29,80,67,55,62,56,54,98,72,44,0.00,40.00,8,5,30,0.02
2013-7-30,88,72,61,62,55,43,92,60,21,0.00,40.00,13,7,32,0.01
2013-7-31,81,71,58,62,53,48,94,57,38,0.00,40.00,7,5,16,0.07
2013-8-1,80,73,62,59,54,49,81,53,39,0.00,40.00,14,9,24,0.04
2013-8-2,73,63,56,60,56,52,98,78,56,0.00,40.00,15,8,32,0.21
2013-8-3,77,66,57,62,60,56,100,81,57,0.00,40.00,16,7,22,1.05
2013-8-4,85,71,62,65,62,60,100,76,46,0.00,40.00,10,5,19,0.03
2013-8-5,82,70,58,63,58,53,92,68,45,0.00,40.00,12,5,27,0.10
2013-8-6,81,69,58,58,54,50,93,61,39,0.00,40.00,12,6,18,0.07
2013-8-7,81,68,55,60,54,49,96,63,41,0.00,40.00,10,5,21,0.38
2013-8-8,75,67,55,58,55,48,96,67,55,0.00,40.00,10,6,20,0.39
2013-8-9,76,66,57,58,54,48,88,67,52,0.00,40.00,9,5,28,0.00
2013-8-10,80,70,59,61,58,55,93,68,49,0.00,40.00,7,4,16,0.02
2013-8-11,77,67,56,63,59,49,99,78,52,0.00,40.00,10,5,27,0.35
2013-8-12,80,68,56,60,54,47,84,62,47,0.00,40.00,8,4,25,0.14
2013-8-13,80,66,56,62,58,-100,93,77,51,0.00,40.00,14,7,25,0.27
2013-8-14,77,66,55,60,52,-100,88,68,45,0.00,40.00,10,5,22,0.27
2013-8-15,76,63,58,61,48,-100,97,67,53,0.00,40.00,9,5,17,0.04
2013-8-16,84,68,55,64,55,-100,99,71,43,0.00,40.00,9,4,14,0.01
2013-8-17,89,77,65,61,56,-100,72,51,36,0.00,40.00,7,4,12,0.01
2013-8-18,81,74,65,65,62,56,80,65,53,0.00,40.00,11,5,21,0.00
2013-8-19,88,75,67,64,51,-100,78,50,27,0.00,40.00,11,5,20,0.00
2013-8-20,95,80,67,61,53,48,65,41,22,0.00,40.00,8,4,16,0.00
2013-8-21,79,72,63,59,52,45,78,51,34,0.00,40.00,11,6,19,0.06
2013-8-22,80,69,60,60,57,52,86,65,44,0.00,40.00,9,5,15,0.02
2013-8-23,88,74,63,66,61,57,93,68,35,0.00,40.00,12,4,19,0.00
2013-8-24,92,80,71,59,49,-100,66,36,23,0.00,40.00,11,7,24,0.00
2013-8-25,90,81,68,58,52,47,52,39,28,0.00,40.00,9,4,14,0.00
2013-8-26,93,83,74,58,51,42,56,36,18,0.00,40.00,10,6,23,0.00
2013-8-27,90,80,70,53,51,48,55,39,24,0.00,40.00,10,6,20,0.00
2013-8-28,88,82,73,69,64,48,75,56,35,0.00,40.00,25,7,43,0.77
2013-8-29,91,81,72,58,52,46,50,37,31,0.00,40.00,11,6,37,0.77
2013-8-30,93,77,67,65,60,53,83,58,34,0.00,40.00,15,6,25,0.00
2013-8-31,87,74,63,59,50,-100,73,47,29,0.00,40.00,15,8,27,0.00
2013-9-1,81,69,55,46,43,37,53,40,27,0.00,40.00,9,5,17,0.00
2013-9-2,90,76,61,57,50,43,55,42,25,0.00,40.00,10,4,21,0.00
2013-9-3,94,80,68,59,55,52,62,43,25,0.00,40.00,14,6,26,0.00
2013-9-4,91,79,66,62,58,55,72,52,34,0.00,40.00,8,5,25,0.00
2013-9-5,93,79,67,62,59,53,79,54,31,0.00,40.00,8,5,14,0.00
2013-9-6,93,83,71,57,52,45,53,36,21,0.00,40.00,13,5,23,0.00
2013-9-7,90,79,68,61,54,-100,60,45,30,0.00,40.00,11,5,19,0.00
2013-9-8,84,71,63,64,62,58,99,73,49,0.00,40.00,15,8,41,0.59
2013-9-9,73,65,59,63,59,56,94,82,66,0.00,40.00,12,5,17,0.59
2013-9-10,73,66,59,56,52,46,89,62,47,0.00,40.00,11,5,17,0.00
2013-9-11,79,67,55,55,49,43,82,56,32,0.00,40.00,8,4,14,0.00
2013-9-12,75,67,55,52,47,42,68,49,39,0.00,40.00,8,5,15,0.00
2013-9-13,62,58,53,57,52,45,99,82,55,0.00,40.00,11,5,16,0.06
2013-9-14,80,66,57,58,54,-100,99,70,39,0.00,40.00,15,8,28,0.02
2013-9-15,64,57,52,57,52,48,97,82,60,0.00,40.00,12,8,23,0.00
2013-9-16,65,56,50,54,51,48,94,84,66,0.00,40.00,13,8,20,0.00
2013-9-17,89,74,54,54,46,40,96,45,18,0.00,40.00,15,5,24,0.00
2013-9-18,75,66,60,47,44,42,63,46,34,0.00,40.00,4,3,9,0.00
2013-9-19,67,57,45,48,37,30,81,50,27,0.00,40.00,11,6,24,0.00
2013-9-20,74,57,41,38,33,24,75,45,18,0.00,40.00,9,5,21,0.00
2013-9-21,88,70,49,33,27,-100,47,24,11,0.00,40.00,13,5,23,0.00
2013-9-22,87,76,57,54,41,35,89,32,19,0.00,40.00,15,8,27,0.01
2013-9-23,61,56,48,54,50,47,97,80,63,0.00,40.00,11,6,21,0.40
2013-9-24,73,62,48,47,39,35,94,46,25,0.00,40.00,17,7,29,0.04
2013-9-25,79,64,53,47,42,36,62,46,27,0.00,40.00,17,6,25,0.00
2013-9-26,66,58,49,48,43,36,77,58,46,0.00,40.00,14,8,29,0.00
2013-9-27,50,44,40,40,37,34,96,78,57,0.00,40.00,10,5,19,0.13
2013-9-28,63,49,36,36,30,-100,83,53,27,0.00,40.00,13,7,25,0.04
2013-9-29,75,63,52,36,32,27,53,33,17,0.00,40.00,14,8,32,0.00
2013-9-30,82,68,56,36,32,28,45,29,15,0.00,40.00,16,8,37,0.00
2013-10-1,63,60,56,34,34,33,44,38,33,0.00,40.00,5,3,15,0.00
2013-10-2,65,57,49,40,34,30,52,44,28,0.00,40.00,14,6,23,0.00
2013-10-3,50,45,35,40,36,32,95,73,50,0.00,40.00,25,14,41,0.35
2013-10-4,35,32,29,34,31,28,97,94,92,0.00,40.00,32,20,59,0.91
2013-10-5,44,33,29,28,25,16,92,75,51,0.00,40.00,23,15,45,0.46
2013-10-6,64,49,36,42,32,26,68,53,41,0.00,40.00,13,7,21,0.05
2013-10-7,71,62,44,36,34,30,59,35,22,0.00,40.00,9,6,22,0.00
2013-10-8,69,59,47,40,34,29,66,40,26,0.00,40.00,8,4,16,0.00
2013-10-9,57,51,45,37,30,25,73,47,29,0.00,40.00,17,11,29,0.00
2013-10-10,60,52,44,48,42,33,95,70,53,0.00,40.00,14,5,23,0.10
2013-10-11,50,46,37,48,37,27,98,72,47,0.00,40.00,21,13,48,1.57
2013-10-12,54,42,32,34,27,-100,85,58,33,0.00,40.00,9,5,20,0.05
2013-10-13,58,47,36,41,36,29,82,67,51,0.00,40.00,9,5,16,0.05
2013-10-14,49,42,36,43,36,23,98,80,57,0.00,40.00,12,7,22,0.95
2013-10-15,40,37,33,32,26,21,91,65,49,0.00,40.00,19,6,30,0.01
2013-10-16,57,41,30,26,23,20,74,49,28,0.00,40.00,11,5,18,0.00
2013-10-17,43,38,29,29,24,20,71,59,46,0.00,40.00,11,6,19,0.00
2013-10-18,42,36,29,25,22,17,80,58,37,0.00,40.00,12,6,24,0.00
2013-10-19,60,48,38,29,24,-100,56,40,28,0.00,40.00,13,7,28,0.00
2013-10-20,49,44,36,36,30,23,79,59,38,0.00,40.00,11,6,25,0.01
2013-10-21,53,43,34,37,33,29,89,68,47,0.00,40.00,11,7,25,0.01
2013-10-22,50,45,42,40,37,33,83,73,57,0.00,40.00,10,5,16,0.00
2013-10-23,52,46,38,39,37,34,91,72,58,0.00,40.00,12,6,18,0.00
2013-10-24,48,38,32,39,34,32,98,89,69,0.00,40.00,7,3,11,0.00
2013-10-25,67,56,38,42,37,30,85,50,35,0.00,40.00,9,5,19,0.00
2013-10-26,63,48,34,33,28,-100,74,51,24,0.00,40.00,8,4,18,0.00
2013-10-27,67,53,36,35,30,24,80,45,23,0.00,40.00,19,10,33,0.00
2013-10-28,36,26,24,30,22,-100,95,91,80,0.00,40.00,21,15,33,0.00
2013-10-29,29,26,23,29,25,22,98,95,93,0.00,40.00,11,1,18,0.00
2013-10-30,49,38,29,37,32,28,98,82,53,0.00,40.00,11,3,21,0.09
2013-10-31,50,42,32,32,27,23,80,58,42,0.00,40.00,15,7,33,0.07
2013-11-1,49,42,36,32,22,15,78,48,28,0.00,40.00,24,10,48,0.00
2013-11-2,57,46,36,29,22,-100,50,39,29,0.00,40.00,13,7,19,0.00
2013-11-3,56,47,33,33,28,21,94,51,28,0.00,40.00,11,6,22,0.00
2013-11-4,42,35,28,32,22,13,96,62,33,0.00,40.00,9,5,18,0.01
2013-11-5,29,26,20,27,24,16,94,90,82,0.00,40.00,10,6,15,0.06
2013-11-6,45,33,18,30,21,14,87,62,43,0.00,40.00,12,6,27,0.18
2013-11-7,49,38,28,30,25,18,89,61,36,0.00,40.00,10,6,15,0.01
2013-11-8,52,46,38,31,22,18,57,39,27,0.00,40.00,19,9,36,0.00
2013-11-9,51,40,33,28,22,-100,65,50,35,0.00,40.00,12,6,18,0.00
2013-11-10,60,42,31,32,26,18,85,55,35,0.00,40.00,12,4,21,0.00
2013-11-11,31,22,18,27,19,16,96,90,85,0.00,40.00,12,5,22,0.00
2013-11-12,58,39,21,27,22,16,91,57,28,0.00,40.00,13,6,22,0.00
2013-11-13,62,52,44,37,26,15,71,37,23,0.00,40.00,7,4,21,0.00
2013-11-14,53,44,37,38,28,23,84,57,35,0.00,40.00,10,5,22,0.02
2013-11-15,52,43,34,29,26,22,74,52,34,0.00,40.00,7,4,24,0.00
2013-11-16,47,39,33,24,19,-100,58,46,34,0.00,40.00,11,7,25,0.00
2013-11-17,43,36,27,25,16,7,72,45,26,0.00,40.00,14,8,33,0.00
2013-11-18,56,39,25,22,15,9,52,39,23,0.00,40.00,11,4,21,0.00
2013-11-19,58,52,40,25,23,21,47,33,25,0.00,40.00,11,6,33,0.00
2013-11-20,48,36,17,29,22,12,91,59,40,0.00,40.00,12,4,19,0.00
2013-11-21,17,13,8,12,8,-1,87,78,64,0.00,40.00,13,5,20,0.00
2013-11-22,36,27,17,13,6,1,61,40,22,0.00,40.00,7,3,12,0.13
2013-11-23,41,23,11,13,4,-100,75,49,23,0.00,40.00,9,4,13,0.03
2013-11-24,42,36,31,24,17,3,64,47,29,0.00,40.00,11,5,22,0.00
2013-11-25,43,36,28,25,21,16,78,57,39,0.00,40.00,11,4,24,0.00
2013-11-26,33,27,21,21,18,13,84,69,51,0.00,40.00,9,4,15,0.00
2013-11-27,58,45,30,23,21,18,64,40,22,0.00,40.00,10,6,17,0.00
2013-11-28,38,31,21,24,21,17,85,68,56,0.00,40.00,9,4,13,0.00
2013-11-29,60,49,39,25,20,17,44,32,20,0.00,40.00,10,5,15,0.00
2013-11-30,52,41,34,25,21,-100,65,48,33,0.00,40.00,7,3,18,0.00
2013-12-1,50,42,30,27,25,22,72,52,38,0.00,40.00,8,4,17,0.00
2013-12-2,55,43,35,33,28,23,90,57,34,0.00,40.00,12,6,18,0.00
2013-12-3,35,19,9,32,16,5,97,89,83,0.00,40.00,12,2,17,0.00
2013-12-4,13,6,-3,6,-1,-14,83,73,59,0.00,40.00,0,0,0,0.00
2013-12-5,8,-4,-12,-6,-13,-21,73,63,47,0.00,40.00,0,0,0,0.00
2013-12-6,2,-8,-14,-10,-16,-21,72,65,56,0.00,40.00,0,0,0,0.00
2013-12-7,-2,-8,-11,-10,-17,-100,73,66,55,0.00,40.00,0,0,0,0.00
2013-12-8,8,0,-4,-5,-8,-11,75,66,54,0.00,40.00,13,2,18,0.00
2013-12-9,20,10,-7,15,-1,-14,81,63,41,0.00,40.00,15,7,31,0.01
2013-12-10,31,21,7,17,11,3,89,68,49,0.00,40.00,9,5,23,0.11
2013-12-11,31,17,3,9,4,-2,83,59,36,0.00,40.00,9,4,16,0.06
2013-12-12,47,35,30,22,17,10,58,47,29,0.00,40.00,10,5,19,0.10
2013-12-13,39,30,22,25,20,13,91,70,37,0.00,40.00,8,3,14,0.01
2013-12-14,43,34,28,24,21,-100,86,61,43,0.00,40.00,11,7,22,0.00
2013-12-15,49,39,31,23,22,19,66,50,36,0.00,40.00,7,5,20,0.00
2013-12-16,51,42,35,21,19,17,53,40,31,0.00,40.00,9,6,28,0.00
2013-12-17,47,36,22,21,19,16,78,52,30,0.00,40.00,10,5,21,0.00
2013-12-18,61,46,32,21,19,17,63,36,19,0.00,40.00,15,9,27,0.00
2013-12-19,32,14,-2,24,10,-8,96,85,63,0.00,40.00,11,3,17,0.00
2013-12-20,30,8,-4,23,1,-10,79,74,69,0.00,40.00,11,2,20,0.18
2013-12-21,26,17,12,21,10,-100,87,76,61,0.00,40.00,9,3,15,0.01
2013-12-22,15,9,2,11,4,-3,87,82,78,0.00,40.00,6,3,10,0.01
2013-12-23,34,7,-5,25,0,-11,80,71,57,0.00,40.00,10,4,13,0.03
2013-12-24,42,34,27,29,24,14,84,67,31,0.00,40.00,12,6,31,0.03
2013-12-25,36,28,22,20,14,8,82,57,37,0.00,40.00,9,6,21,0.01
2013-12-26,46,38,28,21,17,10,52,43,35,0.00,40.00,13,8,23,0.00
2013-12-27,54,44,35,27,24,20,59,46,33,0.00,40.00,14,7,31,0.00
2013-12-28,47,33,9,22,14,-100,77,51,34,0.00,40.00,15,8,31,0.00
2013-12-29,30,18,2,21,8,-3,81,66,46,0.00,40.00,9,4,18,0.00
2013-12-30,39,32,23,24,21,18,88,65,43,0.00,40.00,18,8,33,0.00
2013-12-31,39,29,19,24,19,16,89,69,49,0.00,40.00,10,5,17,0.00
2014-1-1,29,22,15,23,17,13,92,83,69,0.00,40.00,8,3,16,0.01
2014-1-2,38,31,23,20,11,-100,81,56,37,0.00,40.00,9,6,19,0.01